createdAt,value
2018-06-27T00:00:49.280Z,0.00
2018-06-27T00:01:49.282Z,0.00
2018-06-27T00:02:49.287Z,0.00
2018-06-27T00:03:49.285Z,0.00
2018-06-27T00:04:49.291Z,0.00
2018-06-27T00:05:49.294Z,0.00
2018-06-27T00:06:49.298Z,0.00
2018-06-27T00:07:49.301Z,0.00
2018-06-27T00:08:49.300Z,0.00
2018-06-27T00:09:49.300Z,0.00
2018-06-27T00:10:49.308Z,0.00
2018-06-27T00:11:49.312Z,0.00
2018-06-27T00:12:49.313Z,0.00
2018-06-27T00:13:49.316Z,0.00
2018-06-27T00:14:49.315Z,0.00
2018-06-27T00:15:49.320Z,0.00
2018-06-27T00:16:49.324Z,0.00
2018-06-27T00:17:49.325Z,0.00
2018-06-27T00:18:49.326Z,0.00
2018-06-27T00:19:49.329Z,0.00
2018-06-27T00:20:49.386Z,0.00
2018-06-27T00:21:49.335Z,0.00
2018-06-27T00:22:49.337Z,0.00
2018-06-27T00:23:49.340Z,0.00
2018-06-27T00:24:49.342Z,0.00
2018-06-27T00:25:49.348Z,0.00
2018-06-27T00:26:49.352Z,0.00
2018-06-27T00:27:49.353Z,0.00
2018-06-27T00:28:49.352Z,0.00
2018-06-27T00:29:49.355Z,0.00
2018-06-27T00:30:49.357Z,0.00
2018-06-27T00:31:49.352Z,0.00
2018-06-27T00:32:49.367Z,0.00
2018-06-27T00:33:49.365Z,0.00
2018-06-27T00:34:49.367Z,0.00
2018-06-27T00:35:49.368Z,0.00
2018-06-27T00:36:49.369Z,0.00
2018-06-27T00:37:49.374Z,0.00
2018-06-27T00:38:49.373Z,0.00
2018-06-27T00:39:49.374Z,0.00
2018-06-27T00:40:49.377Z,0.00
2018-06-27T00:41:49.377Z,0.00
2018-06-27T00:42:49.380Z,0.00
2018-06-27T00:43:49.379Z,0.00
2018-06-27T00:44:49.386Z,0.00
2018-06-27T00:45:49.388Z,0.00
2018-06-27T00:46:49.386Z,0.00
2018-06-27T00:47:49.396Z,0.00
2018-06-27T00:48:49.386Z,0.00
2018-06-27T00:49:49.394Z,0.00
2018-06-27T00:50:49.396Z,0.00
2018-06-27T00:51:49.399Z,0.00
2018-06-27T00:52:49.397Z,0.00
2018-06-27T00:53:49.401Z,0.00
2018-06-27T00:54:49.408Z,0.00
2018-06-27T00:55:49.405Z,0.00
2018-06-27T00:56:49.412Z,0.00
2018-06-27T00:57:49.413Z,0.00
2018-06-27T00:58:49.407Z,0.00
2018-06-27T00:59:49.405Z,0.00
2018-06-27T01:00:49.414Z,0.00
2018-06-27T01:01:49.413Z,0.00
2018-06-27T01:02:49.414Z,0.00
2018-06-27T01:03:49.417Z,0.00
2018-06-27T01:04:49.418Z,0.00
2018-06-27T01:05:49.418Z,0.00
2018-06-27T01:06:49.419Z,0.00
2018-06-27T01:07:49.424Z,0.00
2018-06-27T01:08:49.421Z,0.00
2018-06-27T01:09:49.422Z,0.00
2018-06-27T01:10:49.421Z,0.00
2018-06-27T01:11:49.427Z,0.00
2018-06-27T01:12:49.427Z,0.00
2018-06-27T01:13:49.432Z,0.00
2018-06-27T01:14:49.435Z,0.00
2018-06-27T01:15:49.436Z,0.00
2018-06-27T01:16:49.436Z,0.00
2018-06-27T01:17:49.440Z,0.00
2018-06-27T01:18:49.437Z,0.00
2018-06-27T01:19:49.438Z,0.00
2018-06-27T01:20:49.438Z,0.00
2018-06-27T01:21:49.439Z,0.00
2018-06-27T01:22:49.441Z,0.00
2018-06-27T01:23:49.492Z,0.00
2018-06-27T01:24:49.437Z,0.00
2018-06-27T01:25:49.447Z,0.00
2018-06-27T01:26:49.443Z,0.00
2018-06-27T01:27:49.448Z,0.00
2018-06-27T01:28:49.449Z,0.00
2018-06-27T01:29:49.450Z,0.00
2018-06-27T01:30:49.453Z,0.00
2018-06-27T01:31:49.453Z,0.00
2018-06-27T01:32:49.456Z,0.00
2018-06-27T01:33:49.456Z,0.00
2018-06-27T01:34:49.457Z,0.00
2018-06-27T01:35:49.459Z,0.00
2018-06-27T01:36:49.457Z,0.00
2018-06-27T01:37:49.459Z,0.00
2018-06-27T01:38:49.461Z,0.00
2018-06-27T01:39:49.462Z,0.00
2018-06-27T01:40:49.462Z,0.00
2018-06-27T01:41:49.463Z,0.00
2018-06-27T01:42:49.465Z,0.00
2018-06-27T01:43:49.466Z,0.00
2018-06-27T01:44:49.463Z,0.00
2018-06-27T01:45:49.466Z,0.00
2018-06-27T01:46:49.464Z,0.00
2018-06-27T01:47:49.467Z,0.00
2018-06-27T01:48:49.470Z,0.00
2018-06-27T01:49:49.472Z,0.00
2018-06-27T01:50:49.477Z,0.00
2018-06-27T01:51:49.473Z,0.00
2018-06-27T01:52:49.475Z,0.00
2018-06-27T01:53:49.476Z,0.00
2018-06-27T01:54:49.476Z,0.00
2018-06-27T01:55:49.479Z,0.00
2018-06-27T01:56:49.477Z,0.00
2018-06-27T01:57:49.479Z,0.00
2018-06-27T01:58:49.480Z,0.00
2018-06-27T01:59:49.480Z,0.00
2018-06-27T02:00:49.474Z,0.00
2018-06-27T02:01:49.484Z,0.00
2018-06-27T02:02:49.485Z,0.00
2018-06-27T02:03:49.486Z,0.00
2018-06-27T02:04:49.484Z,0.00
2018-06-27T02:05:49.505Z,0.00
2018-06-27T02:06:49.486Z,0.00
2018-06-27T02:07:49.488Z,0.00
2018-06-27T02:08:49.481Z,0.00
2018-06-27T02:09:49.489Z,0.00
2018-06-27T02:10:49.487Z,0.00
2018-06-27T02:11:49.490Z,4.00
2018-06-27T02:12:49.491Z,4.00
2018-06-27T02:13:49.489Z,0.00
2018-06-27T02:14:49.492Z,0.00
2018-06-27T02:15:49.493Z,0.00
2018-06-27T02:16:49.488Z,4.00
2018-06-27T02:17:49.494Z,4.00
2018-06-27T02:18:49.496Z,0.00
2018-06-27T02:19:49.499Z,4.00
2018-06-27T02:20:49.497Z,4.00
2018-06-27T02:21:49.496Z,4.00
2018-06-27T02:22:49.492Z,8.00
2018-06-27T02:23:49.499Z,4.00
2018-06-27T02:24:49.500Z,8.00
2018-06-27T02:25:49.493Z,8.00
2018-06-27T02:26:49.501Z,8.00
2018-06-27T02:27:49.507Z,12.00
2018-06-27T02:28:49.503Z,12.00
2018-06-27T02:29:49.501Z,12.00
2018-06-27T02:30:49.501Z,12.00
2018-06-27T02:31:49.504Z,16.00
2018-06-27T02:32:49.501Z,16.00
2018-06-27T02:33:49.503Z,20.00
2018-06-27T02:34:49.506Z,20.00
2018-06-27T02:35:49.506Z,28.00
2018-06-27T02:36:49.505Z,28.00
2018-06-27T02:37:49.506Z,28.00
2018-06-27T02:38:49.507Z,36.00
2018-06-27T02:39:49.506Z,36.00
2018-06-27T02:40:49.511Z,44.00
2018-06-27T02:41:49.505Z,48.00
2018-06-27T02:42:49.513Z,56.00
2018-06-27T02:43:49.502Z,60.00
2018-06-27T02:44:49.503Z,64.00
2018-06-27T02:45:49.509Z,68.00
2018-06-27T02:46:49.512Z,80.00
2018-06-27T02:47:49.513Z,88.00
2018-06-27T02:48:49.519Z,96.00
2018-06-27T02:49:49.614Z,104.00
2018-06-27T02:50:49.513Z,116.00
2018-06-27T02:51:49.514Z,124.00
2018-06-27T02:52:49.513Z,132.00
2018-06-27T02:53:49.512Z,144.00
2018-06-27T02:54:49.513Z,156.00
2018-06-27T02:55:49.514Z,168.00
2018-06-27T02:56:49.515Z,180.00
2018-06-27T02:57:49.513Z,196.00
2018-06-27T02:58:49.519Z,208.00
2018-06-27T02:59:49.516Z,220.00
2018-06-27T03:00:49.517Z,232.00
2018-06-27T03:01:49.509Z,248.00
2018-06-27T03:02:49.516Z,264.00
2018-06-27T03:03:49.519Z,276.00
2018-06-27T03:04:49.518Z,296.00
2018-06-27T03:05:49.517Z,312.00
2018-06-27T03:06:49.521Z,328.00
2018-06-27T03:07:49.521Z,348.00
2018-06-27T03:08:49.520Z,368.00
2018-06-27T03:09:49.519Z,388.00
2018-06-27T03:10:49.520Z,408.00
2018-06-27T03:11:49.521Z,432.00
2018-06-27T03:12:49.517Z,460.00
2018-06-27T03:13:49.521Z,484.00
2018-06-27T03:14:49.521Z,508.00
2018-06-27T03:15:49.521Z,532.00
2018-06-27T03:16:49.521Z,556.00
2018-06-27T03:17:49.521Z,588.00
2018-06-27T03:18:49.523Z,612.00
2018-06-27T03:19:49.523Z,632.00
2018-06-27T03:20:49.523Z,656.00
2018-06-27T03:21:49.524Z,680.00
2018-06-27T03:22:49.521Z,704.00
2018-06-27T03:23:49.523Z,724.00
2018-06-27T03:24:49.522Z,736.00
2018-06-27T03:25:49.525Z,744.00
2018-06-27T03:26:49.527Z,748.00
2018-06-27T03:27:49.525Z,760.00
2018-06-27T03:28:49.526Z,768.00
2018-06-27T03:29:49.522Z,780.00
2018-06-27T03:30:49.529Z,788.00
2018-06-27T03:31:49.527Z,796.00
2018-06-27T03:32:49.528Z,804.00
2018-06-27T03:33:49.541Z,820.00
2018-06-27T03:34:49.530Z,840.00
2018-06-27T03:35:49.533Z,864.00
2018-06-27T03:36:49.529Z,892.00
2018-06-27T03:37:49.532Z,928.00
2018-06-27T03:38:49.532Z,964.00
2018-06-27T03:39:49.531Z,1008.00
2018-06-27T03:40:49.531Z,1052.00
2018-06-27T03:41:49.533Z,1100.00
2018-06-27T03:42:49.532Z,1148.00
2018-06-27T03:43:49.532Z,1192.00
2018-06-27T03:44:49.530Z,1228.00
2018-06-27T03:45:49.533Z,1264.00
2018-06-27T03:46:49.533Z,1300.00
2018-06-27T03:47:49.534Z,1336.00
2018-06-27T03:48:49.536Z,1364.00
2018-06-27T03:49:49.538Z,1392.00
2018-06-27T03:50:49.534Z,1416.00
2018-06-27T03:51:49.535Z,1432.00
2018-06-27T03:52:49.536Z,1440.00
2018-06-27T03:53:49.539Z,1468.00
2018-06-27T03:54:49.537Z,1492.00
2018-06-27T03:55:49.537Z,1504.00
2018-06-27T03:56:49.546Z,1512.00
2018-06-27T03:57:49.538Z,1508.00
2018-06-27T03:58:49.535Z,1564.00
2018-06-27T03:59:49.540Z,1612.00
2018-06-27T04:00:49.533Z,1628.00
2018-06-27T04:01:49.539Z,1668.00
2018-06-27T04:02:49.541Z,1724.00
2018-06-27T04:03:49.540Z,1792.00
2018-06-27T04:04:49.543Z,1832.00
2018-06-27T04:05:49.542Z,1876.00
2018-06-27T04:06:49.564Z,1936.00
2018-06-27T04:07:49.544Z,1976.00
2018-06-27T04:08:49.544Z,2004.00
2018-06-27T04:09:49.543Z,2024.00
2018-06-27T04:10:49.545Z,2024.00
2018-06-27T04:11:49.549Z,1996.00
2018-06-27T04:12:49.611Z,2020.00
2018-06-27T04:13:49.552Z,2076.00
2018-06-27T04:14:49.546Z,2152.00
2018-06-27T04:15:49.551Z,2204.00
2018-06-27T04:16:49.544Z,2260.00
2018-06-27T04:17:49.550Z,2328.00
2018-06-27T04:18:49.551Z,2440.00
2018-06-27T04:19:49.549Z,2624.00
2018-06-27T04:20:49.545Z,2812.00
2018-06-27T04:21:49.550Z,2948.00
2018-06-27T04:22:49.551Z,3000.00
2018-06-27T04:23:49.552Z,3048.00
2018-06-27T04:24:49.552Z,3108.00
2018-06-27T04:25:49.552Z,3152.00
2018-06-27T04:26:49.555Z,3160.00
2018-06-27T04:27:49.554Z,3136.00
2018-06-27T04:28:49.556Z,3076.00
2018-06-27T04:29:49.559Z,3008.00
2018-06-27T04:30:49.557Z,2972.00
2018-06-27T04:31:49.558Z,2864.00
2018-06-27T04:32:49.553Z,2828.00
2018-06-27T04:33:49.560Z,2820.00
2018-06-27T04:34:49.563Z,2916.00
2018-06-27T04:35:49.582Z,2980.00
2018-06-27T04:36:49.571Z,3024.00
2018-06-27T04:37:49.565Z,3076.00
2018-06-27T04:38:49.566Z,3064.00
2018-06-27T04:39:49.565Z,3048.00
2018-06-27T04:40:49.566Z,3000.00
2018-06-27T04:41:49.561Z,3104.00
2018-06-27T04:42:49.571Z,3232.00
2018-06-27T04:43:49.569Z,3324.00
2018-06-27T04:44:49.570Z,3372.00
2018-06-27T04:45:49.573Z,3404.00
2018-06-27T04:46:49.572Z,3408.00
2018-06-27T04:47:49.571Z,3376.00
2018-06-27T04:48:49.573Z,3308.00
2018-06-27T04:49:49.582Z,3256.00
2018-06-27T04:50:49.577Z,3192.00
2018-06-27T04:51:49.576Z,3136.00
2018-06-27T04:52:49.579Z,3016.00
2018-06-27T04:53:49.581Z,2668.00
2018-06-27T04:54:49.593Z,2592.00
2018-06-27T04:55:49.583Z,2532.00
2018-06-27T04:56:49.581Z,2456.00
2018-06-27T04:57:49.585Z,2480.00
2018-06-27T04:58:49.588Z,2512.00
2018-06-27T04:59:49.591Z,2724.00
2018-06-27T05:00:49.587Z,2840.00
2018-06-27T05:01:49.665Z,2872.00
2018-06-27T05:02:49.589Z,2896.00
2018-06-27T05:03:49.593Z,2960.00
2018-06-27T05:04:49.595Z,2968.00
2018-06-27T05:05:49.594Z,2972.00
2018-06-27T05:06:49.593Z,3396.00
2018-06-27T05:07:49.597Z,4208.00
2018-06-27T05:08:49.597Z,5176.00
2018-06-27T05:09:49.614Z,5800.00
2018-06-27T05:10:49.600Z,6236.00
2018-06-27T05:11:49.606Z,5768.00
2018-06-27T05:12:49.604Z,5260.00
2018-06-27T05:13:49.606Z,4708.00
2018-06-27T05:14:49.606Z,4484.00
2018-06-27T05:15:49.609Z,4296.00
2018-06-27T05:16:49.604Z,4352.00
2018-06-27T05:17:49.610Z,4472.00
2018-06-27T05:18:49.614Z,4884.00
2018-06-27T05:19:49.615Z,5100.00
2018-06-27T05:20:49.615Z,5316.00
2018-06-27T05:21:49.624Z,5676.00
2018-06-27T05:22:49.621Z,5932.00
2018-06-27T05:23:49.622Z,5876.00
2018-06-27T05:24:49.623Z,5228.00
2018-06-27T05:25:49.621Z,4928.00
2018-06-27T05:26:49.623Z,4740.00
2018-06-27T05:27:49.628Z,5128.00
2018-06-27T05:28:49.628Z,5588.00
2018-06-27T05:29:49.630Z,5728.00
2018-06-27T05:30:49.636Z,5600.00
2018-06-27T05:31:49.634Z,5500.00
2018-06-27T05:32:49.632Z,5080.00
2018-06-27T05:33:49.642Z,4724.00
2018-06-27T05:34:49.645Z,4196.00
2018-06-27T05:35:49.643Z,3740.00
2018-06-27T05:36:49.646Z,3444.00
2018-06-27T05:37:49.647Z,3164.00
2018-06-27T05:38:49.648Z,2952.00
2018-06-27T05:39:49.650Z,3096.00
2018-06-27T05:40:49.646Z,3000.00
2018-06-27T05:41:49.657Z,3020.00
2018-06-27T05:42:49.657Z,2948.00
2018-06-27T05:43:49.657Z,2968.00
2018-06-27T05:44:49.661Z,2724.00
2018-06-27T05:45:49.662Z,2596.00
2018-06-27T05:46:49.665Z,2536.00
2018-06-27T05:47:49.667Z,2596.00
2018-06-27T05:48:49.668Z,2588.00
2018-06-27T05:49:49.669Z,2652.00
2018-06-27T05:50:49.672Z,2968.00
2018-06-27T05:51:49.674Z,3084.00
2018-06-27T05:52:49.675Z,3148.00
2018-06-27T05:53:49.688Z,3120.00
2018-06-27T05:54:49.679Z,3116.00
2018-06-27T05:55:49.681Z,3112.00
2018-06-27T05:56:49.686Z,3112.00
2018-06-27T05:57:49.682Z,3120.00
2018-06-27T05:58:49.687Z,3104.00
2018-06-27T05:59:49.687Z,3112.00
2018-06-27T06:00:49.693Z,3084.00
2018-06-27T06:01:49.691Z,2932.00
2018-06-27T06:02:49.695Z,3080.00
2018-06-27T06:03:49.697Z,3108.00
2018-06-27T06:04:49.705Z,3144.00
2018-06-27T06:05:49.696Z,3192.00
2018-06-27T06:06:49.702Z,3256.00
2018-06-27T06:07:49.705Z,3212.00
2018-06-27T06:08:49.706Z,3040.00
2018-06-27T06:09:49.712Z,3272.00
2018-06-27T06:10:49.706Z,3220.00
2018-06-27T06:11:49.711Z,3200.00
2018-06-27T06:12:49.718Z,3184.00
2018-06-27T06:13:49.716Z,3180.00
2018-06-27T06:14:49.715Z,3144.00
2018-06-27T06:15:49.720Z,3096.00
2018-06-27T06:16:49.723Z,3060.00
2018-06-27T06:17:49.722Z,3052.00
2018-06-27T06:18:49.725Z,3044.00
2018-06-27T06:19:49.756Z,3028.00
2018-06-27T06:20:49.730Z,3060.00
2018-06-27T06:21:49.731Z,3076.00
2018-06-27T06:22:49.739Z,3112.00
2018-06-27T06:23:49.736Z,3132.00
2018-06-27T06:24:49.737Z,3144.00
2018-06-27T06:25:49.733Z,3152.00
2018-06-27T06:26:49.745Z,3172.00
2018-06-27T06:27:49.747Z,3192.00
2018-06-27T06:28:49.744Z,3188.00
2018-06-27T06:29:49.748Z,3172.00
2018-06-27T06:30:49.751Z,3172.00
2018-06-27T06:31:49.752Z,3176.00
2018-06-27T06:32:49.757Z,3180.00
2018-06-27T06:33:49.756Z,3180.00
2018-06-27T06:34:49.754Z,3188.00
2018-06-27T06:35:49.775Z,3192.00
2018-06-27T06:36:49.761Z,3192.00
2018-06-27T06:37:49.766Z,3192.00
2018-06-27T06:38:49.768Z,3188.00
2018-06-27T06:39:49.770Z,3200.00
2018-06-27T06:40:49.820Z,3216.00
2018-06-27T06:41:49.774Z,3244.00
2018-06-27T06:42:49.778Z,3240.00
2018-06-27T06:43:49.780Z,2652.00
2018-06-27T06:44:49.781Z,2792.00
2018-06-27T06:45:49.784Z,3028.00
2018-06-27T06:46:49.788Z,2816.00
2018-06-27T06:47:49.789Z,3412.00
2018-06-27T06:48:49.790Z,3472.00
2018-06-27T06:49:49.796Z,3504.00
2018-06-27T06:50:49.799Z,3580.00
2018-06-27T06:51:49.800Z,3580.00
2018-06-27T06:52:49.804Z,3552.00
2018-06-27T06:53:49.805Z,3476.00
2018-06-27T06:54:49.814Z,3432.00
2018-06-27T06:55:49.810Z,3496.00
2018-06-27T06:56:49.812Z,3600.00
2018-06-27T06:57:49.818Z,3572.00
2018-06-27T06:58:49.908Z,3452.00
2018-06-27T06:59:49.825Z,3404.00
2018-06-27T07:00:49.837Z,3408.00
2018-06-27T07:01:49.826Z,3408.00
2018-06-27T07:02:49.828Z,3396.00
2018-06-27T07:03:49.837Z,3396.00
2018-06-27T07:04:49.853Z,3396.00
2018-06-27T07:05:49.838Z,3384.00
2018-06-27T07:06:49.841Z,3376.00
2018-06-27T07:07:49.843Z,3336.00
2018-06-27T07:08:49.846Z,3312.00
2018-06-27T07:09:49.849Z,3316.00
2018-06-27T07:10:49.852Z,3304.00
2018-06-27T07:11:49.855Z,3288.00
2018-06-27T07:12:49.859Z,3308.00
2018-06-27T07:13:49.860Z,3320.00
2018-06-27T07:14:49.863Z,3292.00
2018-06-27T07:15:49.868Z,3268.00
2018-06-27T07:16:49.869Z,3260.00
2018-06-27T07:17:49.924Z,3260.00
2018-06-27T07:18:49.875Z,3236.00
2018-06-27T07:19:49.880Z,3272.00
2018-06-27T07:20:49.875Z,3292.00
2018-06-27T07:21:49.885Z,3320.00
2018-06-27T07:22:49.892Z,3316.00
2018-06-27T07:23:49.889Z,3300.00
2018-06-27T07:24:49.896Z,3304.00
2018-06-27T07:25:49.898Z,3320.00
2018-06-27T07:26:49.900Z,3312.00
2018-06-27T07:27:49.905Z,3300.00
2018-06-27T07:28:49.910Z,3296.00
2018-06-27T07:29:49.907Z,3280.00
2018-06-27T07:30:49.918Z,3324.00
2018-06-27T07:31:49.915Z,3320.00
2018-06-27T07:32:49.919Z,3312.00
2018-06-27T07:33:49.922Z,3324.00
2018-06-27T07:34:49.942Z,3320.00
2018-06-27T07:35:49.975Z,3348.00
2018-06-27T07:36:49.931Z,3348.00
2018-06-27T07:37:49.935Z,3328.00
2018-06-27T07:38:49.938Z,3332.00
2018-06-27T07:39:49.942Z,3340.00
2018-06-27T07:40:49.954Z,3352.00
2018-06-27T07:41:49.948Z,3372.00
2018-06-27T07:42:49.951Z,3372.00
2018-06-27T07:43:49.954Z,3416.00
2018-06-27T07:44:49.960Z,3452.00
2018-06-27T07:45:49.961Z,3476.00
2018-06-27T07:46:49.966Z,3508.00
2018-06-27T07:47:49.971Z,3544.00
2018-06-27T07:48:49.970Z,3552.00
2018-06-27T07:49:49.991Z,3548.00
2018-06-27T07:50:49.981Z,3556.00
2018-06-27T07:51:49.983Z,3576.00
2018-06-27T07:52:49.987Z,3576.00
2018-06-27T07:53:49.990Z,3636.00
2018-06-27T07:54:49.993Z,3612.00
2018-06-27T07:55:49.995Z,3796.00
2018-06-27T07:56:50.001Z,2916.00
2018-06-27T07:57:50.000Z,3648.00
2018-06-27T07:58:50.006Z,3836.00
2018-06-27T07:59:50.012Z,2860.00
2018-06-27T08:00:50.009Z,3036.00
2018-06-27T08:01:50.018Z,3884.00
2018-06-27T08:02:50.022Z,3824.00
2018-06-27T08:03:50.018Z,3060.00
2018-06-27T08:04:50.027Z,2888.00
2018-06-27T08:05:50.077Z,3292.00
2018-06-27T08:06:50.036Z,3100.00
2018-06-27T08:07:50.047Z,3796.00
2018-06-27T08:08:50.040Z,3620.00
2018-06-27T08:09:50.045Z,3652.00
2018-06-27T08:10:50.052Z,3228.00
2018-06-27T08:11:50.048Z,3552.00
2018-06-27T08:12:50.053Z,4752.00
2018-06-27T08:13:50.059Z,5492.00
2018-06-27T08:14:50.062Z,4904.00
2018-06-27T08:15:50.066Z,5500.00
2018-06-27T08:16:50.068Z,5272.00
2018-06-27T08:17:50.105Z,4576.00
2018-06-27T08:18:50.078Z,3928.00
2018-06-27T08:19:50.081Z,4172.00
2018-06-27T08:20:50.084Z,4720.00
2018-06-27T08:21:50.086Z,5748.00
2018-06-27T08:22:50.090Z,4460.00
2018-06-27T08:23:50.095Z,4040.00
2018-06-27T08:24:50.099Z,3360.00
2018-06-27T08:25:50.101Z,4052.00
2018-06-27T08:26:50.105Z,4332.00
2018-06-27T08:27:50.113Z,3536.00
2018-06-27T08:28:50.111Z,3660.00
2018-06-27T08:29:50.116Z,3980.00
2018-06-27T08:30:50.120Z,4412.00
2018-06-27T08:31:50.132Z,5740.00
2018-06-27T08:32:50.127Z,5952.00
2018-06-27T08:33:50.134Z,5760.00
2018-06-27T08:34:50.135Z,5152.00
2018-06-27T08:35:50.139Z,6220.00
2018-06-27T08:36:50.145Z,6988.00
2018-06-27T08:37:50.148Z,7280.00
2018-06-27T08:38:50.152Z,8272.00
2018-06-27T08:39:50.154Z,6708.00
2018-06-27T08:40:50.157Z,6160.00
2018-06-27T08:41:50.161Z,6768.00
2018-06-27T08:42:50.161Z,6208.00
2018-06-27T08:43:50.174Z,6432.00
2018-06-27T08:44:50.174Z,5192.00
2018-06-27T08:45:50.178Z,5852.00
2018-06-27T08:46:50.186Z,6476.00
2018-06-27T08:47:50.186Z,6724.00
2018-06-27T08:48:50.190Z,6740.00
2018-06-27T08:49:50.255Z,6720.00
2018-06-27T08:50:50.204Z,7260.00
2018-06-27T08:51:50.205Z,7432.00
2018-06-27T08:52:50.212Z,7672.00
2018-06-27T08:53:50.214Z,8244.00
2018-06-27T08:54:50.218Z,9020.00
2018-06-27T08:55:50.222Z,9228.00
2018-06-27T08:56:50.226Z,8996.00
2018-06-27T08:57:50.232Z,9316.00
2018-06-27T08:58:50.301Z,8184.00
2018-06-27T08:59:50.239Z,7468.00
2018-06-27T09:00:50.247Z,8000.00
2018-06-27T09:01:50.249Z,8548.00
2018-06-27T09:02:50.254Z,9032.00
2018-06-27T09:03:50.259Z,10040.00
2018-06-27T09:04:50.256Z,10028.00
2018-06-27T09:05:50.262Z,8412.00
2018-06-27T09:06:50.280Z,7152.00
2018-06-27T09:07:50.369Z,6868.00
2018-06-27T09:08:50.283Z,7348.00
2018-06-27T09:09:50.290Z,7060.00
2018-06-27T09:10:50.292Z,6112.00
2018-06-27T09:11:50.297Z,5504.00
2018-06-27T09:12:50.361Z,5060.00
2018-06-27T09:13:50.307Z,5032.00
2018-06-27T09:14:50.313Z,5008.00
2018-06-27T09:15:50.321Z,5212.00
2018-06-27T09:16:50.319Z,6752.00
2018-06-27T09:17:50.328Z,7148.00
2018-06-27T09:18:50.333Z,7620.00
2018-06-27T09:19:50.337Z,8292.00
2018-06-27T09:20:50.341Z,8140.00
2018-06-27T09:21:50.346Z,9592.00
2018-06-27T09:22:50.350Z,8636.00
2018-06-27T09:23:50.354Z,8708.00
2018-06-27T09:24:50.360Z,9208.00
2018-06-27T09:25:50.365Z,9352.00
2018-06-27T09:26:50.371Z,9248.00
2018-06-27T09:27:50.370Z,8900.00
2018-06-27T09:28:50.373Z,9128.00
2018-06-27T09:29:50.390Z,7416.00
2018-06-27T09:30:50.386Z,6976.00
2018-06-27T09:31:50.394Z,7756.00
2018-06-27T09:32:50.402Z,6764.00
2018-06-27T09:33:50.407Z,7044.00
2018-06-27T09:34:50.415Z,7788.00
2018-06-27T09:35:50.415Z,9864.00
2018-06-27T09:36:50.421Z,10424.00
2018-06-27T09:37:50.428Z,10024.00
2018-06-27T09:38:50.434Z,9496.00
2018-06-27T09:39:50.438Z,9932.00
2018-06-27T09:40:50.443Z,10048.00
2018-06-27T09:41:50.483Z,8952.00
2018-06-27T09:42:50.454Z,9052.00
2018-06-27T09:43:50.459Z,10044.00
2018-06-27T09:44:50.469Z,10172.00
2018-06-27T09:45:50.470Z,10592.00
2018-06-27T09:46:50.476Z,10304.00
2018-06-27T09:47:50.482Z,11152.00
2018-06-27T09:48:50.489Z,10496.00
2018-06-27T09:49:50.494Z,10216.00
2018-06-27T09:50:50.505Z,9976.00
2018-06-27T09:51:50.506Z,9664.00
2018-06-27T09:52:50.512Z,9200.00
2018-06-27T09:53:50.519Z,8772.00
2018-06-27T09:54:50.525Z,8908.00
2018-06-27T09:55:50.531Z,9528.00
2018-06-27T09:56:50.558Z,10364.00
2018-06-27T09:57:50.542Z,11228.00
2018-06-27T09:58:50.554Z,12384.00
2018-06-27T09:59:50.557Z,13372.00
2018-06-27T10:00:50.562Z,13348.00
2018-06-27T10:01:50.571Z,12048.00
2018-06-27T10:02:50.573Z,11016.00
2018-06-27T10:03:50.583Z,10944.00
2018-06-27T10:04:50.581Z,10072.00
2018-06-27T10:05:50.592Z,9044.00
2018-06-27T10:06:50.598Z,7820.00
2018-06-27T10:07:50.609Z,6948.00
2018-06-27T10:08:50.612Z,6480.00
2018-06-27T10:09:50.617Z,5760.00
2018-06-27T10:10:50.621Z,5472.00
2018-06-27T10:11:50.630Z,5708.00
2018-06-27T10:12:50.636Z,6272.00
2018-06-27T10:13:50.645Z,6856.00
2018-06-27T10:14:50.648Z,8124.00
2018-06-27T10:15:50.655Z,7924.00
2018-06-27T10:16:50.668Z,8688.00
2018-06-27T10:17:50.665Z,9348.00
2018-06-27T10:18:50.666Z,10780.00
2018-06-27T10:19:50.674Z,11376.00
2018-06-27T10:20:50.684Z,11084.00
2018-06-27T10:21:50.704Z,11208.00
2018-06-27T10:22:50.696Z,10536.00
2018-06-27T10:23:50.698Z,10364.00
2018-06-27T10:24:50.709Z,10436.00
2018-06-27T10:25:50.717Z,11516.00
2018-06-27T10:26:50.714Z,12128.00
2018-06-27T10:27:50.719Z,12900.00
2018-06-27T10:28:50.733Z,13612.00
2018-06-27T10:29:50.736Z,13288.00
2018-06-27T10:30:50.743Z,12580.00
2018-06-27T10:31:50.748Z,12796.00
2018-06-27T10:32:50.753Z,12644.00
2018-06-27T10:33:50.761Z,12596.00
2018-06-27T10:34:50.778Z,12896.00
2018-06-27T10:35:50.891Z,12788.00
2018-06-27T10:36:50.779Z,13088.00
2018-06-27T10:37:50.787Z,12876.00
2018-06-27T10:38:50.793Z,12928.00
2018-06-27T10:39:50.799Z,12644.00
2018-06-27T10:40:50.804Z,12172.00
2018-06-27T10:41:50.812Z,11076.00
2018-06-27T10:42:50.822Z,11468.00
2018-06-27T10:43:50.819Z,11468.00
2018-06-27T10:44:50.843Z,10588.00
2018-06-27T10:45:50.837Z,10164.00
2018-06-27T10:46:50.843Z,9984.00
2018-06-27T10:47:50.852Z,9928.00
2018-06-27T10:48:50.856Z,10272.00
2018-06-27T10:49:50.857Z,10456.00
2018-06-27T10:50:50.872Z,10000.00
2018-06-27T10:51:50.876Z,9412.00
2018-06-27T10:52:50.884Z,8928.00
2018-06-27T10:53:50.889Z,8492.00
2018-06-27T10:54:50.896Z,8236.00
2018-06-27T10:55:50.906Z,8328.00
2018-06-27T10:56:50.906Z,8964.00
2018-06-27T10:57:50.914Z,10036.00
2018-06-27T10:58:50.925Z,11096.00
2018-06-27T10:59:50.928Z,12452.00
2018-06-27T11:00:50.933Z,13592.00
2018-06-27T11:01:50.942Z,13316.00
2018-06-27T11:02:50.951Z,12576.00
2018-06-27T11:03:50.954Z,11960.00
2018-06-27T11:04:50.959Z,11256.00
2018-06-27T11:05:51.002Z,10372.00
2018-06-27T11:06:50.976Z,9104.00
2018-06-27T11:07:50.980Z,8632.00
2018-06-27T11:08:50.986Z,8804.00
2018-06-27T11:09:50.990Z,9232.00
2018-06-27T11:10:51.002Z,9884.00
2018-06-27T11:11:51.008Z,10040.00
2018-06-27T11:12:51.013Z,9724.00
2018-06-27T11:13:51.017Z,9276.00
2018-06-27T11:14:51.028Z,8304.00
2018-06-27T11:15:51.037Z,7348.00
2018-06-27T11:16:51.041Z,6260.00
2018-06-27T11:17:51.047Z,5352.00
2018-06-27T11:18:51.056Z,4912.00
2018-06-27T11:19:51.055Z,4684.00
2018-06-27T11:20:51.067Z,4656.00
2018-06-27T11:21:51.074Z,4708.00
2018-06-27T11:22:51.082Z,4900.00
2018-06-27T11:23:51.088Z,5184.00
2018-06-27T11:24:51.094Z,5480.00
2018-06-27T11:25:51.095Z,5972.00
2018-06-27T11:26:51.173Z,6436.00
2018-06-27T11:27:51.114Z,6872.00
2018-06-27T11:28:51.120Z,7128.00
2018-06-27T11:29:51.128Z,7260.00
2018-06-27T11:30:51.133Z,7224.00
2018-06-27T11:31:51.140Z,7092.00
2018-06-27T11:32:51.219Z,6736.00
2018-06-27T11:33:51.151Z,6516.00
2018-06-27T11:34:51.159Z,6216.00
2018-06-27T11:35:51.165Z,5880.00
2018-06-27T11:36:51.171Z,5644.00
2018-06-27T11:37:51.177Z,5628.00
2018-06-27T11:38:51.284Z,5828.00
2018-06-27T11:39:51.189Z,6124.00
2018-06-27T11:40:51.195Z,6540.00
2018-06-27T11:41:51.201Z,7048.00
2018-06-27T11:42:51.227Z,7672.00
2018-06-27T11:43:51.208Z,8372.00
2018-06-27T11:44:51.220Z,9052.00
2018-06-27T11:45:51.227Z,9728.00
2018-06-27T11:46:51.233Z,10296.00
2018-06-27T11:47:51.242Z,10492.00
2018-06-27T11:48:51.252Z,10416.00
2018-06-27T11:49:51.251Z,10380.00
2018-06-27T11:50:51.258Z,10400.00
2018-06-27T11:51:51.264Z,10208.00
2018-06-27T11:52:51.274Z,10176.00
2018-06-27T11:53:51.278Z,10284.00
2018-06-27T11:54:51.279Z,10420.00
2018-06-27T11:55:51.292Z,10728.00
2018-06-27T11:56:51.293Z,11092.00
2018-06-27T11:57:51.304Z,11528.00
2018-06-27T11:58:51.308Z,11892.00
2018-06-27T11:59:51.313Z,12596.00
2018-06-27T12:00:51.321Z,13376.00
2018-06-27T12:01:51.330Z,14232.00
2018-06-27T12:02:51.337Z,15844.00
2018-06-27T12:03:51.343Z,16672.00
2018-06-27T12:04:51.349Z,17056.00
2018-06-27T12:05:51.356Z,17056.00
2018-06-27T12:06:51.364Z,15960.00
2018-06-27T12:07:51.371Z,13960.00
2018-06-27T12:08:51.378Z,12760.00
2018-06-27T12:09:51.385Z,12336.00
2018-06-27T12:10:51.392Z,12084.00
2018-06-27T12:11:51.399Z,12088.00
2018-06-27T12:12:51.405Z,12324.00
2018-06-27T12:13:51.414Z,12736.00
2018-06-27T12:14:51.416Z,12324.00
2018-06-27T12:15:51.430Z,10788.00
2018-06-27T12:16:51.457Z,9324.00
2018-06-27T12:17:51.441Z,8480.00
2018-06-27T12:18:51.449Z,8184.00
2018-06-27T12:19:51.458Z,7876.00